Tropical Cyclones
[Index]
Main Index Home Page Stock Weather Photos Extreme Storms Discussion Storm News and Storm Chasing Reports Tropical Cyclones / Hurricanes / Typhoons Weather Data and Links Wild Fires / Bushfires Weather Observation Techniques Weather Picture Catalogue Tornado Pictures and Reports Stock Video Footage and DVDs for sale
Season 1989-1990 Tropical Cyclone TINA Track Map
Season 1989-1990 Summaries: [BoM-AU] [JTWC-AU] [JTWC-SIO] [JTWC-SPAC] [JTWC-SH]
<<- Previous TC | JTWC 1989-1990 Season | Next TC ->>

click for intensity scale information  Lat/long Grid: Show Hide

 Date Labels: Show Hide

Joint Typhoon Warning Centre Cyclone Data

Name: TINA

24 Jan 1990 06:00 UTC to 29 Jan 1990 12:00 UTC

    date/time    lat    long     hPa   cat  kts
1990-01-24 06   15.0   115.0                  25          
1990-01-24 12   15.1   114.9                  25          
1990-01-24 18   15.2   114.7                  25          
1990-01-25 00   15.5   114.5                  30          
1990-01-25 06   16.1   114.0                  30          
1990-01-25 12   16.3   113.1                  30          
1990-01-25 18   16.5   112.3                  30          
1990-01-26 00   16.7   111.8                  35          
1990-01-26 06   17.0   111.9                  35          
1990-01-26 12   17.7   112.1                  35          
1990-01-26 18   18.6   112.4            1     45          
1990-01-27 00   19.6   112.8            1     45          
1990-01-27 06   20.8   113.2            1     45          
1990-01-27 12   22.1   113.6            1     45          
1990-01-27 18   23.8   114.0            1     45          
1990-01-28 00   25.6   114.4            1     45          
1990-01-28 06   27.5   114.9            1     45          
1990-01-28 12   29.3   116.1            1     40          
1990-01-28 18   31.3   117.4                  35          
1990-01-29 00   33.7   119.2                  35          
1990-01-29 06   36.3   121.2                  35          
1990-01-29 12   38.6   123.4            1     40          
Winds are 1-min average.

Tropical cyclone tracks developed by Michael Bath using data from the Joint Typhoon Warning Centre Best Tracks and Google Maps.


[Australian Severe Weather index] [Copyright Notice] [Email Contacts] [Search This Site] [Privacy Policy]
Document: tropical_cyclone_tina.htm Updated: 18 September 2016